sensor_id;sensor_type;location;lat;lon;timestamp;pressure;altitude;pressure_sealevel;temperature;humidity
6680;BME280;3376;42.664;23.346;2023-12-14T00:00:13;93513.13;;;6.30;100.00
6680;BME280;3376;42.664;23.346;2023-12-14T00:02:40;93526.25;;;6.35;100.00
6680;BME280;3376;42.664;23.346;2023-12-14T00:05:08;93514.53;;;6.33;100.00
6680;BME280;3376;42.664;23.346;2023-12-14T00:07:36;93455.50;;;5.87;100.00
6680;BME280;3376;42.664;23.346;2023-12-14T00:10:04;93479.16;;;6.35;100.00
6680;BME280;3376;42.664;23.346;2023-12-14T00:12:31;93540.50;;;6.38;100.00
6680;BME280;3376;42.664;23.346;2023-12-14T00:14:58;93479.41;;;6.25;100.00
6680;BME280;3376;42.664;23.346;2023-12-14T00:17:25;93535.28;;;6.31;100.00
6680;BME280;3376;42.664;23.346;2023-12-14T00:19:52;93504.06;;;6.34;100.00
6680;BME280;3376;42.664;23.346;2023-12-14T00:22:19;93549.84;;;6.39;100.00
6680;BME280;3376;42.664;23.346;2023-12-14T00:24:47;93518.44;;;6.43;100.00
6680;BME280;3376;42.664;23.346;2023-12-14T00:27:14;93536.28;;;6.45;100.00
6680;BME280;3376;42.664;23.346;2023-12-14T00:29:41;93525.97;;;6.45;100.00
6680;BME280;3376;42.664;23.346;2023-12-14T00:32:08;93522.81;;;6.43;100.00
6680;BME280;3376;42.664;23.346;2023-12-14T00:34:35;93526.69;;;6.39;100.00
6680;BME280;3376;42.664;23.346;2023-12-14T00:37:02;93515.88;;;6.29;100.00
6680;BME280;3376;42.664;23.346;2023-12-14T00:39:29;93520.75;;;6.38;100.00
6680;BME280;3376;42.664;23.346;2023-12-14T00:41:57;93520.84;;;6.45;100.00
6680;BME280;3376;42.664;23.346;2023-12-14T00:44:24;93531.31;;;6.43;100.00
6680;BME280;3376;42.664;23.346;2023-12-14T00:46:51;93524.63;;;6.34;100.00
6680;BME280;3376;42.664;23.346;2023-12-14T00:49:18;93545.38;;;6.33;100.00
6680;BME280;3376;42.664;23.346;2023-12-14T00:51:45;93523.31;;;6.24;100.00
6680;BME280;3376;42.664;23.346;2023-12-14T00:54:12;93516.81;;;6.28;100.00
6680;BME280;3376;42.664;23.346;2023-12-14T00:56:39;93523.91;;;6.26;100.00
6680;BME280;3376;42.664;23.346;2023-12-14T00:59:07;93515.75;;;6.22;100.00
6680;BME280;3376;42.664;23.346;2023-12-14T01:01:34;93501.56;;;6.12;100.00
6680;BME280;3376;42.664;23.346;2023-12-14T01:04:01;93518.22;;;6.16;100.00
6680;BME280;3376;42.664;23.346;2023-12-14T01:06:30;93536.47;;;6.21;100.00
6680;BME280;3376;42.664;23.346;2023-12-14T01:08:56;93530.75;;;6.19;100.00
6680;BME280;3376;42.664;23.346;2023-12-14T01:11:23;93517.53;;;6.22;100.00
6680;BME280;3376;42.664;23.346;2023-12-14T01:13:49;93524.78;;;6.18;100.00
6680;BME280;3376;42.664;23.346;2023-12-14T01:16:18;93515.13;;;6.20;100.00
6680;BME280;3376;42.664;23.346;2023-12-14T01:18:45;93517.34;;;6.23;100.00
6680;BME280;3376;42.664;23.346;2023-12-14T01:21:12;93523.44;;;6.08;100.00
6680;BME280;3376;42.664;23.346;2023-12-14T01:23:39;93507.28;;;6.14;100.00
6680;BME280;3376;42.664;23.346;2023-12-14T01:26:05;93527.84;;;6.14;100.00
6680;BME280;3376;42.664;23.346;2023-12-14T01:28:33;93512.97;;;6.09;100.00
6680;BME280;3376;42.664;23.346;2023-12-14T01:31:00;93504.78;;;6.06;100.00
6680;BME280;3376;42.664;23.346;2023-12-14T01:33:28;93520.44;;;6.19;100.00
6680;BME280;3376;42.664;23.346;2023-12-14T01:35:55;93527.53;;;6.17;100.00
6680;BME280;3376;42.664;23.346;2023-12-14T01:38:22;93532.69;;;6.17;100.00
6680;BME280;3376;42.664;23.346;2023-12-14T01:40:49;93530.22;;;6.01;100.00
6680;BME280;3376;42.664;23.346;2023-12-14T01:43:16;93520.94;;;6.00;100.00
6680;BME280;3376;42.664;23.346;2023-12-14T01:45:43;93457.78;;;5.74;100.00
6680;BME280;3376;42.664;23.346;2023-12-14T01:48:10;93511.75;;;5.82;100.00
6680;BME280;3376;42.664;23.346;2023-12-14T01:50:39;93518.13;;;5.86;100.00
6680;BME280;3376;42.664;23.346;2023-12-14T01:53:06;93515.50;;;5.94;100.00
6680;BME280;3376;42.664;23.346;2023-12-14T01:55:33;93517.97;;;5.80;100.00
6680;BME280;3376;42.664;23.346;2023-12-14T01:58:00;93496.00;;;5.77;100.00
6680;BME280;3376;42.664;23.346;2023-12-14T02:00:35;93516.69;;;5.84;100.00
6680;BME280;3376;42.664;23.346;2023-12-14T02:03:03;93498.28;;;5.72;100.00
6680;BME280;3376;42.664;23.346;2023-12-14T02:05:30;93523.06;;;5.65;100.00
6680;BME280;3376;42.664;23.346;2023-12-14T02:07:59;93498.22;;;5.58;100.00
6680;BME280;3376;42.664;23.346;2023-12-14T02:10:26;93492.25;;;5.65;100.00
6680;BME280;3376;42.664;23.346;2023-12-14T02:12:53;93493.81;;;5.66;100.00
6680;BME280;3376;42.664;23.346;2023-12-14T02:15:20;93483.56;;;5.66;100.00
6680;BME280;3376;42.664;23.346;2023-12-14T02:17:47;93494.41;;;5.76;100.00
6680;BME280;3376;42.664;23.346;2023-12-14T02:20:14;93481.06;;;5.81;100.00
6680;BME280;3376;42.664;23.346;2023-12-14T02:22:52;93471.22;;;5.84;100.00
6680;BME280;3376;42.664;23.346;2023-12-14T02:25:20;93493.50;;;5.92;100.00
6680;BME280;3376;42.664;23.346;2023-12-14T02:27:48;93447.31;;;5.61;100.00
6680;BME280;3376;42.664;23.346;2023-12-14T02:30:16;93459.59;;;5.74;100.00
6680;BME280;3376;42.664;23.346;2023-12-14T02:32:43;93477.19;;;5.85;100.00
6680;BME280;3376;42.664;23.346;2023-12-14T02:35:10;93478.97;;;5.76;100.00
6680;BME280;3376;42.664;23.346;2023-12-14T02:37:37;93486.13;;;5.66;100.00
6680;BME280;3376;42.664;23.346;2023-12-14T02:40:08;93487.25;;;5.64;100.00
6680;BME280;3376;42.664;23.346;2023-12-14T02:42:35;93479.69;;;5.70;100.00
6680;BME280;3376;42.664;23.346;2023-12-14T02:45:03;93448.97;;;5.54;100.00
6680;BME280;3376;42.664;23.346;2023-12-14T02:47:30;93493.81;;;5.66;100.00
6680;BME280;3376;42.664;23.346;2023-12-14T02:49:57;93493.91;;;5.58;100.00
6680;BME280;3376;42.664;23.346;2023-12-14T02:52:24;93467.78;;;5.69;100.00
6680;BME280;3376;42.664;23.346;2023-12-14T02:54:51;93507.06;;;5.55;100.00
6680;BME280;3376;42.664;23.346;2023-12-14T02:57:20;93485.44;;;5.72;100.00
6680;BME280;3376;42.664;23.346;2023-12-14T02:59:46;93494.41;;;5.76;100.00
6680;BME280;3376;42.664;23.346;2023-12-14T03:02:13;93503.06;;;5.83;100.00
6680;BME280;3376;42.664;23.346;2023-12-14T03:04:40;93486.06;;;5.74;100.00
6680;BME280;3376;42.664;23.346;2023-12-14T03:07:07;93505.13;;;5.80;100.00
6680;BME280;3376;42.664;23.346;2023-12-14T03:09:34;93494.28;;;5.70;100.00
6680;BME280;3376;42.664;23.346;2023-12-14T03:12:01;93480.00;;;5.67;100.00
6680;BME280;3376;42.664;23.346;2023-12-14T03:14:32;93459.75;;;5.72;100.00
6680;BME280;3376;42.664;23.346;2023-12-14T03:17:00;93485.16;;;5.90;100.00
6680;BME280;3376;42.664;23.346;2023-12-14T03:19:27;93480.13;;;5.96;100.00
6680;BME280;3376;42.664;23.346;2023-12-14T03:21:55;93484.84;;;5.93;100.00
6680;BME280;3376;42.664;23.346;2023-12-14T03:24:21;93474.47;;;5.78;100.00
6680;BME280;3376;42.664;23.346;2023-12-14T03:26:48;93462.94;;;5.74;100.00
6680;BME280;3376;42.664;23.346;2023-12-14T03:29:16;93317.63;;;4.75;100.00
6680;BME280;3376;42.664;23.346;2023-12-14T03:31:44;93451.97;;;5.80;100.00
6680;BME280;3376;42.664;23.346;2023-12-14T03:34:12;93336.34;;;5.06;100.00
6680;BME280;3376;42.664;23.346;2023-12-14T03:36:39;93470.56;;;5.90;100.00
6680;BME280;3376;42.664;23.346;2023-12-14T03:39:06;93433.09;;;5.73;100.00
6680;BME280;3376;42.664;23.346;2023-12-14T03:41:33;93452.66;;;5.97;100.00
6680;BME280;3376;42.664;23.346;2023-12-14T03:44:00;93444.88;;;6.05;100.00
6680;BME280;3376;42.664;23.346;2023-12-14T03:46:27;93450.72;;;6.14;100.00
6680;BME280;3376;42.664;23.346;2023-12-14T03:48:55;93449.59;;;6.16;100.00
6680;BME280;3376;42.664;23.346;2023-12-14T03:51:22;93442.44;;;6.12;100.00
6680;BME280;3376;42.664;23.346;2023-12-14T03:53:49;93420.97;;;6.05;100.00
6680;BME280;3376;42.664;23.346;2023-12-14T03:56:16;93431.03;;;5.91;100.00
6680;BME280;3376;42.664;23.346;2023-12-14T03:58:43;93384.53;;;5.78;100.00
6680;BME280;3376;42.664;23.346;2023-12-14T04:01:16;93443.66;;;6.16;100.00
6680;BME280;3376;42.664;23.346;2023-12-14T04:03:43;93450.69;;;6.22;100.00
6680;BME280;3376;42.664;23.346;2023-12-14T04:06:12;93445.63;;;6.28;100.00
6680;BME280;3376;42.664;23.346;2023-12-14T04:08:39;93441.03;;;6.24;100.00
6680;BME280;3376;42.664;23.346;2023-12-14T04:11:24;93452.34;;;6.15;100.00
6680;BME280;3376;42.664;23.346;2023-12-14T04:13:51;93460.59;;;6.25;100.00
6680;BME280;3376;42.664;23.346;2023-12-14T04:16:19;93456.63;;;6.22;100.00
6680;BME280;3376;42.664;23.346;2023-12-14T04:18:46;93434.91;;;6.10;100.00
6680;BME280;3376;42.664;23.346;2023-12-14T04:21:15;93481.50;;;6.07;100.00
6680;BME280;3376;42.664;23.346;2023-12-14T04:23:41;93444.94;;;5.82;100.00
6680;BME280;3376;42.664;23.346;2023-12-14T04:26:11;93472.34;;;5.82;100.00
6680;BME280;3376;42.664;23.346;2023-12-14T04:28:39;93465.97;;;5.78;100.00
6680;BME280;3376;42.664;23.346;2023-12-14T04:31:06;93428.44;;;5.91;100.00
6680;BME280;3376;42.664;23.346;2023-12-14T04:33:33;93472.00;;;6.08;100.00
6680;BME280;3376;42.664;23.346;2023-12-14T04:36:20;93455.28;;;6.12;100.00
6680;BME280;3376;42.664;23.346;2023-12-14T04:38:47;93477.97;;;6.23;100.00
6680;BME280;3376;42.664;23.346;2023-12-14T04:41:14;93456.09;;;6.27;100.00
6680;BME280;3376;42.664;23.346;2023-12-14T04:43:41;93470.03;;;6.32;100.00
6680;BME280;3376;42.664;23.346;2023-12-14T04:46:08;93466.56;;;6.25;100.00
6680;BME280;3376;42.664;23.346;2023-12-14T04:48:36;93459.63;;;6.26;100.00
6680;BME280;3376;42.664;23.346;2023-12-14T04:51:03;93445.59;;;6.14;100.00
6680;BME280;3376;42.664;23.346;2023-12-14T04:53:32;93465.31;;;6.21;100.00
6680;BME280;3376;42.664;23.346;2023-12-14T04:55:58;93462.81;;;6.13;100.00
6680;BME280;3376;42.664;23.346;2023-12-14T04:58:25;93455.09;;;6.13;100.00
6680;BME280;3376;42.664;23.346;2023-12-14T05:00:52;93454.28;;;6.13;100.00
6680;BME280;3376;42.664;23.346;2023-12-14T05:03:19;93455.09;;;6.28;100.00
6680;BME280;3376;42.664;23.346;2023-12-14T05:05:46;93478.59;;;6.25;100.00
6680;BME280;3376;42.664;23.346;2023-12-14T05:08:14;93462.28;;;6.18;100.00
6680;BME280;3376;42.664;23.346;2023-12-14T05:10:42;93472.56;;;6.18;100.00
6680;BME280;3376;42.664;23.346;2023-12-14T05:13:09;93465.84;;;6.17;100.00
6680;BME280;3376;42.664;23.346;2023-12-14T05:15:36;93470.25;;;6.23;100.00
6680;BME280;3376;42.664;23.346;2023-12-14T05:18:03;93442.50;;;6.18;100.00
6680;BME280;3376;42.664;23.346;2023-12-14T05:20:30;93451.31;;;6.24;100.00
6680;BME280;3376;42.664;23.346;2023-12-14T05:22:57;93454.25;;;6.35;100.00
6680;BME280;3376;42.664;23.346;2023-12-14T05:25:25;93416.00;;;6.03;100.00
6680;BME280;3376;42.664;23.346;2023-12-14T05:27:53;93447.66;;;6.18;100.00
6680;BME280;3376;42.664;23.346;2023-12-14T05:30:20;93466.78;;;6.16;100.00
6680;BME280;3376;42.664;23.346;2023-12-14T05:32:47;93466.53;;;6.11;100.00
6680;BME280;3376;42.664;23.346;2023-12-14T05:35:14;93434.75;;;5.89;100.00
6680;BME280;3376;42.664;23.346;2023-12-14T05:37:41;93478.16;;;6.21;100.00
6680;BME280;3376;42.664;23.346;2023-12-14T05:40:10;93473.19;;;6.34;100.00
6680;BME280;3376;42.664;23.346;2023-12-14T05:42:37;93474.72;;;6.29;100.00
6680;BME280;3376;42.664;23.346;2023-12-14T05:45:06;93486.78;;;6.28;100.00
6680;BME280;3376;42.664;23.346;2023-12-14T05:47:34;93470.97;;;6.17;100.00
6680;BME280;3376;42.664;23.346;2023-12-14T05:50:01;93385.28;;;5.50;100.00
6680;BME280;3376;42.664;23.346;2023-12-14T05:52:28;93490.56;;;6.18;100.00
6680;BME280;3376;42.664;23.346;2023-12-14T05:54:55;93487.41;;;6.30;100.00
6680;BME280;3376;42.664;23.346;2023-12-14T05:57:22;93487.81;;;6.19;100.00
6680;BME280;3376;42.664;23.346;2023-12-14T05:59:50;93488.53;;;6.28;100.00
6680;BME280;3376;42.664;23.346;2023-12-14T06:02:19;93487.41;;;6.30;100.00
6680;BME280;3376;42.664;23.346;2023-12-14T06:04:46;93473.53;;;6.17;100.00
6680;BME280;3376;42.664;23.346;2023-12-14T06:07:14;93483.94;;;6.38;100.00
6680;BME280;3376;42.664;23.346;2023-12-14T06:09:41;93491.94;;;6.43;100.00
6680;BME280;3376;42.664;23.346;2023-12-14T06:12:08;93481.53;;;6.36;100.00
6680;BME280;3376;42.664;23.346;2023-12-14T06:14:35;93514.75;;;6.46;100.00
6680;BME280;3376;42.664;23.346;2023-12-14T06:17:02;93499.75;;;6.49;100.00
6680;BME280;3376;42.664;23.346;2023-12-14T06:19:31;93506.31;;;6.52;100.00
6680;BME280;3376;42.664;23.346;2023-12-14T06:21:58;93379.75;;;5.75;100.00
6680;BME280;3376;42.664;23.346;2023-12-14T06:24:25;93490.78;;;6.45;100.00
6680;BME280;3376;42.664;23.346;2023-12-14T06:26:52;93452.22;;;6.31;100.00
6680;BME280;3376;42.664;23.346;2023-12-14T06:29:19;93536.13;;;6.61;100.00
6680;BME280;3376;42.664;23.346;2023-12-14T06:31:46;93511.28;;;6.53;100.00
6680;BME280;3376;42.664;23.346;2023-12-14T06:34:13;93521.50;;;6.61;100.00
6680;BME280;3376;42.664;23.346;2023-12-14T06:36:43;93502.06;;;6.59;100.00
6680;BME280;3376;42.664;23.346;2023-12-14T06:39:10;93519.44;;;6.86;100.00
6680;BME280;3376;42.664;23.346;2023-12-14T06:41:37;93553.13;;;6.99;100.00
6680;BME280;3376;42.664;23.346;2023-12-14T06:44:04;93518.91;;;7.05;100.00
6680;BME280;3376;42.664;23.346;2023-12-14T06:46:31;93546.69;;;7.24;100.00
6680;BME280;3376;42.664;23.346;2023-12-14T06:48:58;93556.56;;;7.35;100.00
6680;BME280;3376;42.664;23.346;2023-12-14T06:51:25;93415.66;;;6.64;100.00
6680;BME280;3376;42.664;23.346;2023-12-14T06:53:54;93544.19;;;7.45;100.00
6680;BME280;3376;42.664;23.346;2023-12-14T06:56:20;93562.81;;;7.62;100.00
6680;BME280;3376;42.664;23.346;2023-12-14T06:58:47;93543.13;;;7.75;100.00
6680;BME280;3376;42.664;23.346;2023-12-14T07:01:16;93533.19;;;7.72;100.00
6680;BME280;3376;42.664;23.346;2023-12-14T07:03:44;93567.47;;;7.87;100.00
6680;BME280;3376;42.664;23.346;2023-12-14T07:06:12;93562.03;;;7.97;100.00
6680;BME280;3376;42.664;23.346;2023-12-14T07:08:40;93535.91;;;8.06;100.00
6680;BME280;3376;42.664;23.346;2023-12-14T07:11:09;93560.19;;;8.33;100.00
6680;BME280;3376;42.664;23.346;2023-12-14T07:13:36;93552.75;;;8.45;100.00
6680;BME280;3376;42.664;23.346;2023-12-14T07:16:04;93553.47;;;8.60;100.00
6680;BME280;3376;42.664;23.346;2023-12-14T07:18:33;93569.28;;;8.78;100.00
6680;BME280;3376;42.664;23.346;2023-12-14T07:21:00;93550.56;;;8.69;100.00
6680;BME280;3376;42.664;23.346;2023-12-14T07:23:28;93573.72;;;8.84;100.00
6680;BME280;3376;42.664;23.346;2023-12-14T07:25:55;93582.75;;;9.01;100.00
6680;BME280;3376;42.664;23.346;2023-12-14T07:28:23;93584.22;;;9.10;100.00
6680;BME280;3376;42.664;23.346;2023-12-14T07:30:50;93591.69;;;9.32;100.00
6680;BME280;3376;42.664;23.346;2023-12-14T07:33:17;93543.53;;;9.18;100.00
6680;BME280;3376;42.664;23.346;2023-12-14T07:35:44;93584.25;;;9.57;100.00
6680;BME280;3376;42.664;23.346;2023-12-14T07:38:11;93591.41;;;9.55;100.00
6680;BME280;3376;42.664;23.346;2023-12-14T07:40:38;93598.56;;;9.53;100.00
6680;BME280;3376;42.664;23.346;2023-12-14T07:43:06;93591.06;;;9.58;100.00
6680;BME280;3376;42.664;23.346;2023-12-14T07:45:35;93598.47;;;9.74;100.00
6680;BME280;3376;42.664;23.346;2023-12-14T07:48:02;93597.13;;;9.91;100.00
6680;BME280;3376;42.664;23.346;2023-12-14T07:50:30;93601.91;;;9.94;100.00
6680;BME280;3376;42.664;23.346;2023-12-14T07:52:57;93604.06;;;10.25;100.00
6680;BME280;3376;42.664;23.346;2023-12-14T07:55:24;93561.84;;;10.24;98.23
6680;BME280;3376;42.664;23.346;2023-12-14T07:57:51;93602.50;;;10.69;95.57
6680;BME280;3376;42.664;23.346;2023-12-14T08:00:18;93579.38;;;10.61;95.17
6680;BME280;3376;42.664;23.346;2023-12-14T08:02:46;93606.50;;;10.65;93.88
6680;BME280;3376;42.664;23.346;2023-12-14T08:05:13;93606.91;;;11.08;95.88
6680;BME280;3376;42.664;23.346;2023-12-14T08:07:40;93634.72;;;11.52;89.77
6680;BME280;3376;42.664;23.346;2023-12-14T08:10:07;93550.94;;;11.64;87.67
6680;BME280;3376;42.664;23.346;2023-12-14T08:12:34;93607.28;;;12.08;86.08
6680;BME280;3376;42.664;23.346;2023-12-14T08:15:01;93597.88;;;12.07;83.22
6680;BME280;3376;42.664;23.346;2023-12-14T08:17:29;93611.91;;;12.37;84.31
6680;BME280;3376;42.664;23.346;2023-12-14T08:19:57;93611.75;;;12.32;82.49
6680;BME280;3376;42.664;23.346;2023-12-14T08:22:24;93615.81;;;12.15;83.21
6680;BME280;3376;42.664;23.346;2023-12-14T08:24:51;93619.28;;;11.96;83.59
6680;BME280;3376;42.664;23.346;2023-12-14T08:27:18;93630.25;;;11.98;84.51
6680;BME280;3376;42.664;23.346;2023-12-14T08:29:45;93622.28;;;11.93;85.60
6680;BME280;3376;42.664;23.346;2023-12-14T08:32:12;93624.25;;;12.04;85.59
6680;BME280;3376;42.664;23.346;2023-12-14T08:34:40;93607.69;;;11.99;84.69
6680;BME280;3376;42.664;23.346;2023-12-14T08:37:08;93427.94;;;10.84;83.67
6680;BME280;3376;42.664;23.346;2023-12-14T08:39:35;93611.16;;;12.30;83.32
6680;BME280;3376;42.664;23.346;2023-12-14T08:42:03;93594.13;;;12.34;83.56
6680;BME280;3376;42.664;23.346;2023-12-14T08:44:30;93629.00;;;12.51;83.32
6680;BME280;3376;42.664;23.346;2023-12-14T08:46:57;93615.22;;;12.51;82.97
6680;BME280;3376;42.664;23.346;2023-12-14T08:49:24;93627.16;;;12.58;81.87
6680;BME280;3376;42.664;23.346;2023-12-14T08:51:51;93606.31;;;12.71;81.52
6680;BME280;3376;42.664;23.346;2023-12-14T08:54:19;93610.06;;;12.44;80.39
6680;BME280;3376;42.664;23.346;2023-12-14T08:56:46;93626.16;;;12.59;82.20
6680;BME280;3376;42.664;23.346;2023-12-14T08:59:13;93638.25;;;12.78;80.29
6680;BME280;3376;42.664;23.346;2023-12-14T09:01:40;93616.84;;;12.76;80.75
6680;BME280;3376;42.664;23.346;2023-12-14T09:04:07;93619.34;;;13.21;80.63
6680;BME280;3376;42.664;23.346;2023-12-14T09:06:34;93596.47;;;13.47;77.51
6680;BME280;3376;42.664;23.346;2023-12-14T09:09:01;93621.72;;;13.47;76.10
6680;BME280;3376;42.664;23.346;2023-12-14T09:11:30;93639.72;;;13.66;76.13
6680;BME280;3376;42.664;23.346;2023-12-14T09:13:57;93641.97;;;13.99;75.12
6680;BME280;3376;42.664;23.346;2023-12-14T09:16:24;93589.25;;;13.85;73.32
6680;BME280;3376;42.664;23.346;2023-12-14T09:18:51;93609.34;;;14.14;72.50
6680;BME280;3376;42.664;23.346;2023-12-14T09:21:17;93596.25;;;13.85;73.81
6680;BME280;3376;42.664;23.346;2023-12-14T09:23:44;93595.13;;;13.81;75.20
6680;BME280;3376;42.664;23.346;2023-12-14T09:26:11;93579.34;;;13.40;75.86
6680;BME280;3376;42.664;23.346;2023-12-14T09:28:40;93582.25;;;13.32;76.56
6680;BME280;3376;42.664;23.346;2023-12-14T09:31:08;93607.81;;;13.35;77.77
6680;BME280;3376;42.664;23.346;2023-12-14T09:33:35;93601.44;;;13.31;78.43
6680;BME280;3376;42.664;23.346;2023-12-14T09:36:02;93601.94;;;13.21;78.04
6680;BME280;3376;42.664;23.346;2023-12-14T09:38:29;93635.97;;;13.20;77.19
6680;BME280;3376;42.664;23.346;2023-12-14T09:40:56;93622.25;;;13.31;77.21
6680;BME280;3376;42.664;23.346;2023-12-14T09:43:23;93626.47;;;13.50;77.40
6680;BME280;3376;42.664;23.346;2023-12-14T09:45:52;93620.53;;;13.43;77.10
6680;BME280;3376;42.664;23.346;2023-12-14T09:48:19;93616.94;;;13.44;77.06
6680;BME280;3376;42.664;23.346;2023-12-14T09:50:47;93613.25;;;13.51;77.44
6680;BME280;3376;42.664;23.346;2023-12-14T09:53:15;93611.44;;;13.70;77.06
6680;BME280;3376;42.664;23.346;2023-12-14T09:55:43;93630.84;;;13.92;77.02
6680;BME280;3376;42.664;23.346;2023-12-14T09:58:10;93640.69;;;14.08;75.52
6680;BME280;3376;42.664;23.346;2023-12-14T10:00:39;93644.50;;;14.05;75.02
6680;BME280;3376;42.664;23.346;2023-12-14T10:03:21;93642.84;;;13.93;73.60
6680;BME280;3376;42.664;23.346;2023-12-14T10:05:48;93643.72;;;13.87;74.45
6680;BME280;3376;42.664;23.346;2023-12-14T10:08:15;93597.34;;;13.59;75.52
6680;BME280;3376;42.664;23.346;2023-12-14T10:10:43;93628.00;;;13.57;76.71
6680;BME280;3376;42.664;23.346;2023-12-14T10:13:10;93633.69;;;13.48;77.25
6680;BME280;3376;42.664;23.346;2023-12-14T10:15:41;93556.16;;;12.89;78.72
6680;BME280;3376;42.664;23.346;2023-12-14T10:18:08;93633.19;;;13.39;78.23
6680;BME280;3376;42.664;23.346;2023-12-14T10:20:37;93633.88;;;13.28;79.87
6680;BME280;3376;42.664;23.346;2023-12-14T10:23:05;93634.06;;;13.27;79.64
6680;BME280;3376;42.664;23.346;2023-12-14T10:25:32;93630.63;;;13.33;79.68
6680;BME280;3376;42.664;23.346;2023-12-14T10:27:59;93602.56;;;13.17;78.50
6680;BME280;3376;42.664;23.346;2023-12-14T10:30:28;93630.63;;;13.33;79.33
6680;BME280;3376;42.664;23.346;2023-12-14T10:32:56;93629.47;;;13.29;79.77
6680;BME280;3376;42.664;23.346;2023-12-14T10:35:23;93621.50;;;13.24;79.66
6680;BME280;3376;42.664;23.346;2023-12-14T10:37:52;93643.28;;;13.29;79.16
6680;BME280;3376;42.664;23.346;2023-12-14T10:40:19;93657.38;;;13.15;80.26
6680;BME280;3376;42.664;23.346;2023-12-14T10:42:47;93649.22;;;13.12;81.17
6680;BME280;3376;42.664;23.346;2023-12-14T10:45:15;93649.41;;;13.10;80.86
6680;BME280;3376;42.664;23.346;2023-12-14T10:47:44;93654.63;;;13.10;81.25
6680;BME280;3376;42.664;23.346;2023-12-14T10:50:12;93658.63;;;13.13;82.39
6680;BME280;3376;42.664;23.346;2023-12-14T10:52:39;93668.00;;;13.14;85.09
6680;BME280;3376;42.664;23.346;2023-12-14T10:55:13;93673.13;;;12.95;88.42
6680;BME280;3376;42.664;23.346;2023-12-14T10:57:42;93679.81;;;12.78;90.93
6680;BME280;3376;42.664;23.346;2023-12-14T11:00:09;93680.47;;;12.67;94.04
6680;BME280;3376;42.664;23.346;2023-12-14T11:02:39;93683.19;;;12.41;98.23
6680;BME280;3376;42.664;23.346;2023-12-14T11:05:10;93659.13;;;12.21;100.00
6680;BME280;3376;42.664;23.346;2023-12-14T11:07:48;93685.31;;;12.13;100.00
6680;BME280;3376;42.664;23.346;2023-12-14T11:10:23;93685.75;;;12.04;100.00
6680;BME280;3376;42.664;23.346;2023-12-14T11:12:57;93676.22;;;11.91;100.00
6680;BME280;3376;42.664;23.346;2023-12-14T11:15:28;93691.59;;;11.86;100.00
6680;BME280;3376;42.664;23.346;2023-12-14T11:18:23;93687.19;;;11.80;100.00
6680;BME280;3376;42.664;23.346;2023-12-14T11:20:53;93673.84;;;11.50;100.00
6680;BME280;3376;42.664;23.346;2023-12-14T11:23:29;93670.28;;;11.19;100.00
6680;BME280;3376;42.664;23.346;2023-12-14T11:25:59;93717.34;;;11.35;100.00
6680;BME280;3376;42.664;23.346;2023-12-14T11:28:28;93712.78;;;11.24;100.00
6680;BME280;3376;42.664;23.346;2023-12-14T11:30:56;93712.16;;;11.09;100.00
6680;BME280;3376;42.664;23.346;2023-12-14T11:33:23;93716.91;;;11.06;100.00
6680;BME280;3376;42.664;23.346;2023-12-14T11:35:51;93589.81;;;10.01;100.00
6680;BME280;3376;42.664;23.346;2023-12-14T11:38:19;93722.66;;;10.75;100.00
6680;BME280;3376;42.664;23.346;2023-12-14T11:40:47;93740.59;;;10.77;100.00
6680;BME280;3376;42.664;23.346;2023-12-14T11:43:16;93733.59;;;10.57;100.00
6680;BME280;3376;42.664;23.346;2023-12-14T11:45:45;93738.56;;;10.59;100.00
6680;BME280;3376;42.664;23.346;2023-12-14T11:48:13;93729.59;;;10.55;100.00
6680;BME280;3376;42.664;23.346;2023-12-14T11:50:41;93734.53;;;10.43;100.00
6680;BME280;3376;42.664;23.346;2023-12-14T11:53:10;93752.56;;;10.30;100.00
6680;BME280;3376;42.664;23.346;2023-12-14T11:55:39;93746.13;;;10.13;100.00
6680;BME280;3376;42.664;23.346;2023-12-14T11:58:06;93735.16;;;10.11;100.00
6680;BME280;3376;42.664;23.346;2023-12-14T12:00:35;93758.38;;;10.05;100.00
6680;BME280;3376;42.664;23.346;2023-12-14T12:03:12;93778.56;;;10.09;100.00
6680;BME280;3376;42.664;23.346;2023-12-14T12:05:40;93758.97;;;10.00;100.00
6680;BME280;3376;42.664;23.346;2023-12-14T12:08:08;93784.25;;;10.05;100.00
6680;BME280;3376;42.664;23.346;2023-12-14T12:10:37;93783.66;;;10.03;100.00
6680;BME280;3376;42.664;23.346;2023-12-14T12:13:05;93781.44;;;10.00;100.00
6680;BME280;3376;42.664;23.346;2023-12-14T12:15:32;93788.78;;;9.96;100.00
6680;BME280;3376;42.664;23.346;2023-12-14T12:18:03;93789.31;;;9.85;100.00
6680;BME280;3376;42.664;23.346;2023-12-14T12:20:30;93764.41;;;9.78;100.00
6680;BME280;3376;42.664;23.346;2023-12-14T12:22:57;93784.91;;;9.79;100.00
6680;BME280;3376;42.664;23.346;2023-12-14T12:25:24;93768.88;;;9.63;100.00
6680;BME280;3376;42.664;23.346;2023-12-14T12:27:53;93773.78;;;9.79;100.00
6680;BME280;3376;42.664;23.346;2023-12-14T12:30:20;93790.63;;;9.75;100.00
6680;BME280;3376;42.664;23.346;2023-12-14T12:32:48;93769.38;;;9.79;100.00
6680;BME280;3376;42.664;23.346;2023-12-14T12:35:17;93787.25;;;9.74;100.00
6680;BME280;3376;42.664;23.346;2023-12-14T12:37:44;93731.66;;;9.36;100.00
6680;BME280;3376;42.664;23.346;2023-12-14T12:40:12;93771.66;;;9.61;100.00
6680;BME280;3376;42.664;23.346;2023-12-14T12:42:41;93774.78;;;9.57;100.00
6680;BME280;3376;42.664;23.346;2023-12-14T12:45:09;93773.19;;;9.56;100.00
6680;BME280;3376;42.664;23.346;2023-12-14T12:47:37;93774.72;;;9.50;100.00
6680;BME280;3376;42.664;23.346;2023-12-14T12:50:05;93791.00;;;9.44;100.00
6680;BME280;3376;42.664;23.346;2023-12-14T12:52:34;93786.94;;;9.35;100.00
6680;BME280;3376;42.664;23.346;2023-12-14T12:55:01;93772.78;;;9.31;100.00
6680;BME280;3376;42.664;23.346;2023-12-14T12:57:28;93799.63;;;9.30;100.00
6680;BME280;3376;42.664;23.346;2023-12-14T12:59:54;93789.84;;;9.25;100.00
6680;BME280;3376;42.664;23.346;2023-12-14T13:02:21;93780.06;;;9.21;100.00
6680;BME280;3376;42.664;23.346;2023-12-14T13:04:48;93798.94;;;9.21;100.00
6680;BME280;3376;42.664;23.346;2023-12-14T13:07:15;93802.34;;;9.22;100.00
6680;BME280;3376;42.664;23.346;2023-12-14T13:09:45;93792.91;;;9.35;100.00
6680;BME280;3376;42.664;23.346;2023-12-14T13:12:12;93800.91;;;9.40;100.00